Time;durP1;ratioP1;P1;durP2;ratioP2;P2;SDS_P1;SDS_P2;PMS_P1;PMS_P2;Temp;Humidity;BMP_temperature;BMP_pressure;BME280_temperature;BME280_humidity;BME280_pressure;Samples;Min_cycle;Max_cycle;Signal;HPM_P1;HPM_P2
2022/09/28 00:01:36;;;;;;;6.07;3.72;;;;;;;;;;5006887;28;20021;-77
2022/09/28 00:04:01;;;;;;;6.65;3.97;;;;;;;;;;5001255;28;20122;-78
2022/09/28 00:06:29;;;;;;;5.68;4.13;;;;;;;;;;5000972;28;20058;-78
2022/09/28 00:08:54;;;;;;;6.00;3.95;;;;;;;;;;5006029;28;20477;-76
2022/09/28 00:11:21;;;;;;;5.40;3.85;;;;;;;;;;5007573;28;20121;-76
2022/09/28 00:13:51;;;;;;;9.80;4.32;;;;;;;;;;5000545;28;20029;-77
2022/09/28 00:16:19;;;;;;;6.72;4.05;;;;;;;;;;5002854;28;20041;-77
2022/09/28 00:18:45;;;;;;;7.53;4.10;;;;;;;;;;4998298;28;21564;-76
2022/09/28 00:21:17;;;;;;;6.40;4.40;;;;;;;;;;5005111;28;20157;-78
2022/09/28 00:26:30;;;;;;;4.93;3.63;;;;;;;;;;5008220;28;20048;-76
2022/09/28 00:28:58;;;;;;;7.35;3.90;;;;;;;;;;5001256;28;20473;-76
2022/09/28 00:31:25;;;;;;;6.78;4.40;;;;;;;;;;5003119;28;20030;-77
2022/09/28 00:33:51;;;;;;;5.75;3.85;;;;;;;;;;5010357;28;20108;-78
2022/09/28 00:36:17;;;;;;;9.32;4.90;;;;;;;;;;5033484;28;20054;-76
2022/09/28 00:38:42;;;;;;;6.68;4.50;;;;;;;;;;5005608;28;20504;-76
2022/09/28 00:41:10;;;;;;;7.28;4.53;;;;;;;;;;5000041;28;20116;-76
2022/09/28 00:43:36;;;;;;;6.38;4.40;;;;;;;;;;5005007;28;20428;-76
2022/09/28 00:46:05;;;;;;;6.30;3.95;;;;;;;;;;5001100;28;20117;-76
2022/09/28 00:48:34;;;;;;;6.72;4.53;;;;;;;;;;4999013;28;20049;-77
2022/09/28 00:51:05;;;;;;;6.40;4.30;;;;;;;;;;5007228;28;20044;-77
2022/09/28 00:53:33;;;;;;;5.43;3.97;;;;;;;;;;5003189;28;20498;-76
2022/09/28 00:56:06;;;;;;;6.88;4.43;;;;;;;;;;5008226;28;20622;-76
2022/09/28 00:58:35;;;;;;;8.38;4.28;;;;;;;;;;5002663;28;20067;-79
2022/09/28 01:01:02;;;;;;;5.82;4.07;;;;;;;;;;5033567;28;20482;-76
2022/09/28 01:03:27;;;;;;;4.97;3.92;;;;;;;;;;5003805;28;20120;-76
2022/09/28 01:05:56;;;;;;;7.90;4.57;;;;;;;;;;5004000;28;20108;-76
2022/09/28 01:08:23;;;;;;;6.50;4.47;;;;;;;;;;5002700;28;20101;-78
2022/09/28 01:10:50;;;;;;;6.70;3.58;;;;;;;;;;5029142;28;20038;-76
2022/09/28 01:13:16;;;;;;;5.93;4.10;;;;;;;;;;5013727;28;20029;-76
2022/09/28 01:16:09;;;;;;;5.13;3.78;;;;;;;;;;5039211;28;20429;-77
2022/09/28 01:18:52;;;;;;;5.18;3.25;;;;;;;;;;5015239;28;20467;-75
2022/09/28 01:21:20;;;;;;;6.45;3.65;;;;;;;;;;5000550;28;20533;-75
2022/09/28 01:24:10;;;;;;;6.32;3.80;;;;;;;;;;5004101;28;20033;-76
2022/09/28 01:26:35;;;;;;;5.70;2.95;;;;;;;;;;4998501;28;20028;-78
2022/09/28 01:29:17;;;;;;;4.85;3.05;;;;;;;;;;4998362;28;20108;-79
2022/09/28 01:31:47;;;;;;;5.50;3.70;;;;;;;;;;4999961;28;20026;-78
2022/09/28 01:34:19;;;;;;;5.53;3.55;;;;;;;;;;5005435;28;20161;-76
2022/09/28 01:36:48;;;;;;;4.90;3.15;;;;;;;;;;5016561;28;20034;-76
2022/09/28 01:39:26;;;;;;;6.32;3.80;;;;;;;;;;5002367;28;20402;-76
2022/09/28 01:41:57;;;;;;;7.75;3.67;;;;;;;;;;5002597;28;20030;-77
2022/09/28 01:44:26;;;;;;;5.97;3.65;;;;;;;;;;5005317;28;20034;-77
2022/09/28 01:46:52;;;;;;;6.60;3.47;;;;;;;;;;4999935;28;20034;-76
2022/09/28 01:49:26;;;;;;;5.28;3.80;;;;;;;;;;4997827;28;20478;-76
2022/09/28 01:52:03;;;;;;;4.63;3.08;;;;;;;;;;4996233;28;20025;-76
2022/09/28 01:55:01;;;;;;;5.10;3.38;;;;;;;;;;4994472;28;20025;-76
2022/09/28 01:57:36;;;;;;;5.45;3.85;;;;;;;;;;4985722;28;20042;-78
2022/09/28 02:00:06;;;;;;;5.03;3.53;;;;;;;;;;4993941;28;20033;-77
2022/09/28 02:03:05;;;;;;;5.53;3.88;;;;;;;;;;4993350;28;20048;-77
2022/09/28 02:05:39;;;;;;;4.65;3.22;;;;;;;;;;4998063;28;20371;-76
2022/09/28 02:08:11;;;;;;;7.30;3.83;;;;;;;;;;4997103;28;20030;-76
2022/09/28 02:10:42;;;;;;;9.00;4.57;;;;;;;;;;5000498;28;20080;-75
2022/09/28 02:13:15;;;;;;;5.82;3.80;;;;;;;;;;4994922;28;20279;-79
2022/09/28 02:16:07;;;;;;;7.05;3.80;;;;;;;;;;4998267;28;20022;-77
2022/09/28 02:18:33;;;;;;;9.43;3.72;;;;;;;;;;4996024;28;20026;-77
2022/09/28 02:21:20;;;;;;;6.32;4.07;;;;;;;;;;4994884;28;20034;-76
2022/09/28 02:23:55;;;;;;;7.72;3.75;;;;;;;;;;4996630;28;20565;-77
2022/09/28 02:26:24;;;;;;;5.78;3.63;;;;;;;;;;5001889;28;20627;-76
2022/09/28 02:28:49;;;;;;;5.93;3.67;;;;;;;;;;4998289;28;20997;-77
2022/09/28 02:31:15;;;;;;;6.30;3.45;;;;;;;;;;4997254;28;20429;-76
2022/09/28 02:33:43;;;;;;;6.88;3.53;;;;;;;;;;4994836;28;20030;-78
2022/09/28 02:36:08;;;;;;;8.10;3.50;;;;;;;;;;4998683;28;20029;-76
2022/09/28 02:38:35;;;;;;;5.28;3.47;;;;;;;;;;4994541;28;20022;-76
2022/09/28 02:41:13;;;;;;;5.30;3.70;;;;;;;;;;4991916;28;20493;-76
2022/09/28 02:44:00;;;;;;;4.40;3.25;;;;;;;;;;4996647;28;20029;-79
2022/09/28 02:46:31;;;;;;;5.90;3.58;;;;;;;;;;5004227;28;20026;-77
2022/09/28 02:49:06;;;;;;;5.78;4.07;;;;;;;;;;4994882;28;20091;-77
2022/09/28 02:51:44;;;;;;;7.03;3.70;;;;;;;;;;4992525;28;20030;-77
2022/09/28 02:54:28;;;;;;;7.97;3.40;;;;;;;;;;5001441;28;20057;-77
2022/09/28 02:57:19;;;;;;;6.90;3.50;;;;;;;;;;4994715;28;20080;-76
2022/09/28 03:00:04;;;;;;;5.75;3.50;;;;;;;;;;5012959;28;20041;-76
2022/09/28 03:03:00;;;;;;;4.90;3.25;;;;;;;;;;5008319;28;20057;-76
2022/09/28 03:05:45;;;;;;;5.38;3.13;;;;;;;;;;5003056;28;20026;-77
2022/09/28 03:08:24;;;;;;;6.95;2.95;;;;;;;;;;5005803;28;20546;-76
2022/09/28 03:10:56;;;;;;;6.65;3.38;;;;;;;;;;5005252;28;20018;-77
2022/09/28 03:13:21;;;;;;;5.50;3.40;;;;;;;;;;5001713;28;20070;-77
2022/09/28 03:15:47;;;;;;;5.72;3.40;;;;;;;;;;5010549;28;20025;-77
2022/09/28 03:18:12;;;;;;;4.25;2.83;;;;;;;;;;5006980;28;20026;-76
2022/09/28 03:20:38;;;;;;;4.93;2.80;;;;;;;;;;5006344;28;20034;-76
2022/09/28 03:23:03;;;;;;;6.18;2.83;;;;;;;;;;5001902;28;20075;-77
2022/09/28 03:25:29;;;;;;;4.72;2.72;;;;;;;;;;5012127;28;20410;-76
2022/09/28 03:27:54;;;;;;;5.10;2.45;;;;;;;;;;4998639;28;20124;-76
2022/09/28 03:30:21;;;;;;;5.13;2.55;;;;;;;;;;5008519;28;20690;-76
2022/09/28 03:32:46;;;;;;;4.05;2.42;;;;;;;;;;5006594;28;20552;-76
2022/09/28 03:35:12;;;;;;;4.38;2.53;;;;;;;;;;5008191;28;20030;-76
2022/09/28 03:37:37;;;;;;;4.20;2.22;;;;;;;;;;5003518;28;20060;-76
2022/09/28 03:40:03;;;;;;;4.55;2.40;;;;;;;;;;5000588;28;20036;-77
2022/09/28 03:42:28;;;;;;;4.25;2.20;;;;;;;;;;5000177;28;20026;-77
2022/09/28 03:44:54;;;;;;;3.88;2.35;;;;;;;;;;4999783;28;20551;-76
2022/09/28 03:47:20;;;;;;;4.53;2.38;;;;;;;;;;5004944;28;20026;-76
2022/09/28 03:49:45;;;;;;;5.18;2.30;;;;;;;;;;5007357;28;20021;-76
2022/09/28 03:52:12;;;;;;;3.08;1.80;;;;;;;;;;5007811;28;20082;-76
2022/09/28 03:54:37;;;;;;;3.53;1.80;;;;;;;;;;5008505;28;20978;-76
2022/09/28 03:57:04;;;;;;;3.58;1.60;;;;;;;;;;5004469;28;20059;-77
2022/09/28 03:59:29;;;;;;;3.33;1.50;;;;;;;;;;4999160;28;20778;-77
2022/09/28 04:01:55;;;;;;;2.90;1.27;;;;;;;;;;5038125;28;20462;-76
2022/09/28 04:04:20;;;;;;;2.42;1.20;;;;;;;;;;5004413;28;20486;-77
2022/09/28 04:06:46;;;;;;;2.47;1.08;;;;;;;;;;5007189;28;20030;-76
2022/09/28 04:09:11;;;;;;;2.53;1.05;;;;;;;;;;5000157;28;20061;-78
2022/09/28 04:11:36;;;;;;;1.75;0.70;;;;;;;;;;4999692;28;20045;-77
2022/09/28 04:14:02;;;;;;;2.85;0.70;;;;;;;;;;5005437;28;20054;-77
2022/09/28 04:16:27;;;;;;;1.35;0.52;;;;;;;;;;5007328;28;20117;-77
2022/09/28 04:18:53;;;;;;;0.98;0.60;;;;;;;;;;5004626;28;20496;-77
2022/09/28 04:21:19;;;;;;;1.27;0.50;;;;;;;;;;5007282;28;20046;-75
2022/09/28 04:23:46;;;;;;;0.65;0.45;;;;;;;;;;5007860;28;20504;-76
2022/09/28 04:26:20;;;;;;;2.95;0.80;;;;;;;;;;5003230;28;20052;-77
2022/09/28 04:31:35;;;;;;;2.25;0.60;;;;;;;;;;5003450;28;20092;-76
2022/09/28 04:34:01;;;;;;;1.27;0.60;;;;;;;;;;5003335;28;20390;-77
2022/09/28 04:36:26;;;;;;;1.65;0.70;;;;;;;;;;5004012;28;20030;-78
2022/09/28 04:38:51;;;;;;;2.95;0.80;;;;;;;;;;5002604;28;20034;-77
2022/09/28 04:41:17;;;;;;;3.05;0.70;;;;;;;;;;5001220;28;20029;-76
2022/09/28 04:43:45;;;;;;;1.83;0.70;;;;;;;;;;5007451;28;20026;-76
2022/09/28 04:46:10;;;;;;;1.90;0.68;;;;;;;;;;5004127;28;20379;-76
2022/09/28 04:48:36;;;;;;;3.25;0.50;;;;;;;;;;5006394;28;20032;-76
2022/09/28 04:51:02;;;;;;;1.45;0.50;;;;;;;;;;5003497;28;20458;-77
2022/09/28 04:53:28;;;;;;;3.53;0.68;;;;;;;;;;5004929;28;20068;-76
2022/09/28 04:55:59;;;;;;;1.50;0.50;;;;;;;;;;5004034;28;20034;-77
2022/09/28 04:58:25;;;;;;;2.17;0.70;;;;;;;;;;5003438;28;20033;-79
2022/09/28 05:00:52;;;;;;;1.63;0.80;;;;;;;;;;5004885;28;20105;-76
2022/09/28 05:03:18;;;;;;;1.70;0.70;;;;;;;;;;4998101;28;20025;-78
2022/09/28 05:05:44;;;;;;;1.73;0.70;;;;;;;;;;5005017;28;20554;-77
2022/09/28 05:08:10;;;;;;;1.08;0.57;;;;;;;;;;4999109;28;20425;-76
2022/09/28 05:10:39;;;;;;;2.63;0.65;;;;;;;;;;4996615;28;20026;-77
2022/09/28 05:13:05;;;;;;;1.02;0.60;;;;;;;;;;5003066;28;20494;-77
2022/09/28 05:15:30;;;;;;;0.77;0.50;;;;;;;;;;5004785;28;20022;-75
2022/09/28 05:17:55;;;;;;;1.38;0.70;;;;;;;;;;5003202;28;20453;-76
2022/09/28 05:20:21;;;;;;;1.02;0.63;;;;;;;;;;5008873;28;20038;-77
2022/09/28 05:22:46;;;;;;;2.72;0.80;;;;;;;;;;5007865;28;20038;-77
2022/09/28 05:25:12;;;;;;;1.27;0.70;;;;;;;;;;5008494;28;20038;-77
2022/09/28 05:27:37;;;;;;;2.10;0.70;;;;;;;;;;5007555;28;20030;-77
2022/09/28 05:30:03;;;;;;;1.80;0.80;;;;;;;;;;5008314;28;20089;-75
2022/09/28 05:32:28;;;;;;;0.68;0.50;;;;;;;;;;5008409;28;20034;-75
2022/09/28 05:34:54;;;;;;;2.50;0.77;;;;;;;;;;5010382;28;20051;-76
2022/09/28 05:37:20;;;;;;;2.30;0.90;;;;;;;;;;5008106;28;20477;-76
2022/09/28 05:39:45;;;;;;;2.08;0.82;;;;;;;;;;5011633;28;20040;-78
2022/09/28 05:42:10;;;;;;;3.65;0.80;;;;;;;;;;5008626;28;20049;-75
2022/09/28 05:44:37;;;;;;;1.95;1.13;;;;;;;;;;5006858;28;20033;-76
2022/09/28 05:47:02;;;;;;;1.65;0.70;;;;;;;;;;5006978;28;20512;-79
2022/09/28 05:49:30;;;;;;;2.92;0.80;;;;;;;;;;5002387;28;20062;-76
2022/09/28 05:51:55;;;;;;;1.65;0.90;;;;;;;;;;5003522;28;20069;-78
2022/09/28 05:54:21;;;;;;;2.97;0.90;;;;;;;;;;5034033;28;20030;-77
2022/09/28 05:56:46;;;;;;;3.97;1.10;;;;;;;;;;5003962;28;20037;-77
2022/09/28 05:59:12;;;;;;;4.40;1.20;;;;;;;;;;5000091;28;20041;-77
2022/09/28 06:01:37;;;;;;;3.40;1.63;;;;;;;;;;5004525;28;20040;-76
2022/09/28 06:04:03;;;;;;;3.92;1.85;;;;;;;;;;5003921;28;20025;-78
2022/09/28 06:06:28;;;;;;;3.50;1.85;;;;;;;;;;5026098;28;20909;-76
2022/09/28 06:08:53;;;;;;;3.72;1.70;;;;;;;;;;5003912;28;20469;-76
2022/09/28 06:11:19;;;;;;;3.60;1.90;;;;;;;;;;5007285;28;20026;-76
2022/09/28 06:13:44;;;;;;;2.92;1.77;;;;;;;;;;5007922;28;20117;-76
2022/09/28 06:16:15;;;;;;;2.47;1.40;;;;;;;;;;5010211;28;20029;-77
2022/09/28 06:18:41;;;;;;;4.28;2.10;;;;;;;;;;5040464;28;20046;-76
2022/09/28 06:21:09;;;;;;;2.00;1.20;;;;;;;;;;5005261;28;20149;-77
2022/09/28 06:23:35;;;;;;;3.17;2.13;;;;;;;;;;5013611;28;20026;-77
2022/09/28 06:26:00;;;;;;;4.35;2.47;;;;;;;;;;5003979;28;20021;-76
2022/09/28 06:28:26;;;;;;;7.90;2.53;;;;;;;;;;5011268;28;20025;-76
2022/09/28 06:30:52;;;;;;;4.30;2.40;;;;;;;;;;5009938;28;20031;-76
2022/09/28 06:33:17;;;;;;;5.07;2.17;;;;;;;;;;5012864;28;20033;-76
2022/09/28 06:35:42;;;;;;;2.85;1.80;;;;;;;;;;5011573;28;20022;-76
2022/09/28 06:38:08;;;;;;;3.40;1.55;;;;;;;;;;5010988;28;20469;-76
2022/09/28 06:40:34;;;;;;;4.28;1.48;;;;;;;;;;5013137;28;20025;-77
2022/09/28 06:43:08;;;;;;;5.30;1.48;;;;;;;;;;5010086;28;20390;-76
2022/09/28 06:45:34;;;;;;;4.28;1.30;;;;;;;;;;5010240;28;20022;-77
2022/09/28 06:48:00;;;;;;;2.92;1.40;;;;;;;;;;5009685;28;20080;-76
2022/09/28 06:50:31;;;;;;;2.92;1.30;;;;;;;;;;5010059;28;20053;-75
2022/09/28 06:52:57;;;;;;;2.70;1.30;;;;;;;;;;5009462;28;20026;-76
2022/09/28 06:55:22;;;;;;;2.95;1.35;;;;;;;;;;5008990;28;20045;-77
2022/09/28 06:57:57;;;;;;;3.10;1.30;;;;;;;;;;5010265;28;20367;-77
2022/09/28 07:00:22;;;;;;;3.03;1.48;;;;;;;;;;5039651;28;20065;-77
2022/09/28 07:02:47;;;;;;;2.10;1.23;;;;;;;;;;5008189;28;20049;-77
2022/09/28 07:05:13;;;;;;;2.58;1.25;;;;;;;;;;5011194;28;20030;-77
2022/09/28 07:07:39;;;;;;;3.40;1.40;;;;;;;;;;5011885;28;20032;-76
2022/09/28 07:10:05;;;;;;;4.93;1.60;;;;;;;;;;5005305;28;20069;-76
2022/09/28 07:12:33;;;;;;;3.03;1.50;;;;;;;;;;5010018;28;20045;-76
2022/09/28 07:14:58;;;;;;;4.72;1.80;;;;;;;;;;5011492;28;20037;-77
2022/09/28 07:17:24;;;;;;;2.78;1.38;;;;;;;;;;5010438;28;20032;-76
2022/09/28 07:19:51;;;;;;;3.72;1.65;;;;;;;;;;5010316;28;20478;-77
2022/09/28 07:22:18;;;;;;;4.10;1.60;;;;;;;;;;5009831;28;20727;-76
2022/09/28 07:24:43;;;;;;;2.25;1.40;;;;;;;;;;5014697;28;20025;-77
2022/09/28 07:27:09;;;;;;;4.75;1.50;;;;;;;;;;5009372;28;20499;-76
2022/09/28 07:29:34;;;;;;;3.97;1.52;;;;;;;;;;5010275;28;20025;-76
2022/09/28 07:32:00;;;;;;;3.10;1.50;;;;;;;;;;5010582;28;20084;-76
2022/09/28 07:34:26;;;;;;;3.95;1.50;;;;;;;;;;5010859;28;20030;-76
2022/09/28 07:36:57;;;;;;;3.97;1.40;;;;;;;;;;5010430;28;20033;-77
2022/09/28 07:39:23;;;;;;;3.78;1.38;;;;;;;;;;5008370;28;20397;-76
2022/09/28 07:41:48;;;;;;;3.58;1.48;;;;;;;;;;5013606;28;20026;-76
2022/09/28 07:44:14;;;;;;;3.03;1.40;;;;;;;;;;5005697;28;20045;-77
2022/09/28 07:46:42;;;;;;;2.65;1.23;;;;;;;;;;5008661;28;20507;-76
2022/09/28 07:49:07;;;;;;;4.28;1.55;;;;;;;;;;5010791;28;20398;-77
2022/09/28 07:51:33;;;;;;;2.35;1.50;;;;;;;;;;5007353;28;20026;-77
2022/09/28 07:53:58;;;;;;;2.97;1.83;;;;;;;;;;5011809;28;20022;-77
2022/09/28 07:56:24;;;;;;;3.00;1.50;;;;;;;;;;5007397;28;20057;-77
2022/09/28 07:58:49;;;;;;;2.50;1.20;;;;;;;;;;5010981;28;20061;-77
2022/09/28 08:01:15;;;;;;;2.03;1.40;;;;;;;;;;5004200;28;20501;-76
2022/09/28 08:03:46;;;;;;;2.40;1.48;;;;;;;;;;5008219;28;20026;-75
2022/09/28 08:06:13;;;;;;;2.28;1.35;;;;;;;;;;5007884;28;20038;-78
2022/09/28 08:08:43;;;;;;;3.22;1.20;;;;;;;;;;5009675;28;20391;-77
2022/09/28 08:11:10;;;;;;;3.90;1.40;;;;;;;;;;5009654;28;20371;-77
2022/09/28 08:13:36;;;;;;;4.00;1.13;;;;;;;;;;5007571;28;20117;-77
2022/09/28 08:16:03;;;;;;;3.67;1.42;;;;;;;;;;5006713;28;20055;-77
2022/09/28 08:18:29;;;;;;;4.13;1.30;;;;;;;;;;5007933;28;20465;-76
2022/09/28 08:23:38;;;;;;;4.63;1.50;;;;;;;;;;5003353;28;20032;-77
2022/09/28 08:26:04;;;;;;;2.63;1.40;;;;;;;;;;5012683;28;20390;-76
2022/09/28 08:28:29;;;;;;;2.65;1.48;;;;;;;;;;5009480;28;20026;-76
2022/09/28 08:30:58;;;;;;;3.08;1.60;;;;;;;;;;5007670;28;20037;-77
2022/09/28 08:33:23;;;;;;;4.32;1.25;;;;;;;;;;5008434;28;20483;-77
2022/09/28 08:36:00;;;;;;;6.22;1.73;;;;;;;;;;5008552;28;20023;-76
2022/09/28 08:38:28;;;;;;;2.90;1.60;;;;;;;;;;5008368;28;20034;-77
2022/09/28 08:41:14;;;;;;;2.97;1.85;;;;;;;;;;5006138;28;20113;-77
2022/09/28 08:43:58;;;;;;;2.97;1.33;;;;;;;;;;5040081;28;20032;-77
2022/09/28 08:46:29;;;;;;;4.38;1.65;;;;;;;;;;5009185;28;20032;-78
2022/09/28 08:49:07;;;;;;;5.28;1.75;;;;;;;;;;5006758;28;20494;-78
2022/09/28 08:51:43;;;;;;;3.88;1.20;;;;;;;;;;5007461;28;20034;-77
2022/09/28 08:54:32;;;;;;;2.70;1.30;;;;;;;;;;5007647;28;20104;-77
2022/09/28 08:57:00;;;;;;;4.57;1.10;;;;;;;;;;5010854;28;20026;-77
2022/09/28 08:59:30;;;;;;;2.00;1.08;;;;;;;;;;5007471;28;20044;-76
2022/09/28 09:01:59;;;;;;;3.53;1.10;;;;;;;;;;5012467;28;20092;-77
2022/09/28 09:04:24;;;;;;;2.88;0.88;;;;;;;;;;5003909;28;20084;-76
2022/09/28 09:07:16;;;;;;;1.73;1.00;;;;;;;;;;5006694;28;20030;-77
2022/09/28 09:09:55;;;;;;;3.97;1.35;;;;;;;;;;5041144;28;20564;-77
2022/09/28 09:12:26;;;;;;;3.67;1.48;;;;;;;;;;5011353;28;20026;-76
2022/09/28 09:15:00;;;;;;;3.10;1.42;;;;;;;;;;5008524;28;20026;-77
2022/09/28 09:18:04;;;;;;;8.77;1.80;;;;;;;;;;5009734;28;20041;-77
2022/09/28 09:20:47;;;;;;;2.17;1.40;;;;;;;;;;5001249;28;20513;-77
2022/09/28 09:23:27;;;;;;;3.10;1.20;;;;;;;;;;5006420;28;20457;-77
2022/09/28 09:26:02;;;;;;;2.17;1.13;;;;;;;;;;5002134;28;20474;-77
2022/09/28 09:28:27;;;;;;;1.73;0.98;;;;;;;;;;5007848;28;20022;-77
2022/09/28 09:31:17;;;;;;;1.80;0.93;;;;;;;;;;5006227;28;20442;-78
2022/09/28 09:34:06;;;;;;;2.80;0.93;;;;;;;;;;5009421;28;20060;-77
2022/09/28 09:37:04;;;;;;;2.15;0.80;;;;;;;;;;5009835;28;20030;-76
2022/09/28 09:39:45;;;;;;;2.95;0.80;;;;;;;;;;5006114;28;20108;-77
2022/09/28 09:42:29;;;;;;;1.10;0.70;;;;;;;;;;5006383;28;20540;-77
2022/09/28 09:45:25;;;;;;;2.13;1.02;;;;;;;;;;5023805;28;20064;-77
2022/09/28 09:48:05;;;;;;;2.25;0.70;;;;;;;;;;5008508;28;20520;-76
2022/09/28 09:50:46;;;;;;;3.85;0.80;;;;;;;;;;5009786;28;20105;-78
2022/09/28 09:53:28;;;;;;;1.38;0.70;;;;;;;;;;5003722;28;20104;-77
2022/09/28 09:56:23;;;;;;;4.03;0.70;;;;;;;;;;5002523;28;20108;-77
2022/09/28 09:58:52;;;;;;;1.33;0.60;;;;;;;;;;5005720;28;20144;-77
2022/09/28 10:01:22;;;;;;;1.20;0.55;;;;;;;;;;5007276;28;20029;-77
2022/09/28 10:03:48;;;;;;;1.55;0.70;;;;;;;;;;5002132;28;20045;-77
2022/09/28 10:06:24;;;;;;;0.70;0.63;;;;;;;;;;5012374;28;20026;-78
2022/09/28 10:09:16;;;;;;;1.67;0.60;;;;;;;;;;5008271;28;20054;-77
2022/09/28 10:11:44;;;;;;;1.45;0.52;;;;;;;;;;5008647;28;20445;-78
2022/09/28 10:14:16;;;;;;;2.35;0.70;;;;;;;;;;5014186;28;20164;-77
2022/09/28 10:16:43;;;;;;;1.67;0.80;;;;;;;;;;5013733;28;20041;-77
2022/09/28 10:19:12;;;;;;;2.20;1.00;;;;;;;;;;5010956;28;20026;-77
2022/09/28 10:21:40;;;;;;;2.70;1.10;;;;;;;;;;5011011;28;20042;-77
2022/09/28 10:24:16;;;;;;;2.08;1.30;;;;;;;;;;5011148;28;20038;-77
2022/09/28 10:26:47;;;;;;;1.30;0.82;;;;;;;;;;5007435;28;20487;-77
2022/09/28 10:29:20;;;;;;;1.20;0.80;;;;;;;;;;5013400;28;20549;-76
2022/09/28 10:31:47;;;;;;;2.08;0.80;;;;;;;;;;5012492;28;21507;-78
2022/09/28 10:34:15;;;;;;;1.48;0.60;;;;;;;;;;5011318;28;20033;-78
2022/09/28 10:37:02;;;;;;;1.00;0.60;;;;;;;;;;5014201;28;20026;-77
2022/09/28 10:39:52;;;;;;;1.00;0.50;;;;;;;;;;5008744;28;20164;-77
2022/09/28 10:42:35;;;;;;;5.00;0.60;;;;;;;;;;5009598;28;20697;-77
2022/09/28 10:45:21;;;;;;;2.08;0.80;;;;;;;;;;5008990;28;20059;-77
2022/09/28 10:47:46;;;;;;;2.28;0.88;;;;;;;;;;5005075;28;20029;-77
2022/09/28 10:50:20;;;;;;;1.30;0.70;;;;;;;;;;5012631;28;20426;-77
2022/09/28 10:52:45;;;;;;;2.00;0.50;;;;;;;;;;5009937;28;20065;-77
2022/09/28 10:55:19;;;;;;;1.48;0.50;;;;;;;;;;5012069;28;20053;-77
2022/09/28 10:57:45;;;;;;;1.38;0.50;;;;;;;;;;5006565;28;20034;-76
2022/09/28 11:00:34;;;;;;;0.93;0.55;;;;;;;;;;5008552;28;20076;-76
2022/09/28 11:03:01;;;;;;;3.50;0.70;;;;;;;;;;5007496;28;20108;-76
2022/09/28 11:05:27;;;;;;;1.73;0.40;;;;;;;;;;5011143;28;20061;-77
2022/09/28 11:07:54;;;;;;;1.35;0.40;;;;;;;;;;4990592;28;20033;-78
2022/09/28 11:10:28;;;;;;;0.80;0.40;;;;;;;;;;5011842;28;20412;-77
2022/09/28 11:12:55;;;;;;;0.70;0.38;;;;;;;;;;5011731;28;20401;-76
2022/09/28 11:15:25;;;;;;;1.33;0.40;;;;;;;;;;5011865;28;20496;-77
2022/09/28 11:17:51;;;;;;;1.20;0.40;;;;;;;;;;5014805;28;20022;-76
2022/09/28 11:20:22;;;;;;;1.60;0.88;;;;;;;;;;5007600;28;20068;-77
2022/09/28 11:22:48;;;;;;;0.60;0.47;;;;;;;;;;5011824;28;20060;-77
2022/09/28 11:25:16;;;;;;;0.60;0.40;;;;;;;;;;5006258;28;20022;-78
2022/09/28 11:27:51;;;;;;;1.08;0.40;;;;;;;;;;5005589;28;20022;-76
2022/09/28 11:30:43;;;;;;;0.50;0.40;;;;;;;;;;5001744;28;20030;-78
2022/09/28 11:33:18;;;;;;;2.92;0.40;;;;;;;;;;5003838;28;20061;-78
2022/09/28 11:35:47;;;;;;;1.95;0.50;;;;;;;;;;5031335;28;20501;-77
2022/09/28 11:38:50;;;;;;;2.53;0.50;;;;;;;;;;5012777;28;20037;-77
2022/09/28 11:41:46;;;;;;;1.17;0.40;;;;;;;;;;5006919;28;20033;-78
2022/09/28 11:44:17;;;;;;;0.43;0.40;;;;;;;;;;5003559;28;20584;-77
2022/09/28 11:46:46;;;;;;;0.95;0.35;;;;;;;;;;5021392;28;20030;-77
2022/09/28 11:49:37;;;;;;;0.50;0.40;;;;;;;;;;5013579;28;20447;-77
2022/09/28 11:52:13;;;;;;;1.95;0.52;;;;;;;;;;5004683;28;20027;-77
2022/09/28 11:55:03;;;;;;;0.70;0.50;;;;;;;;;;5012511;28;20034;-77
2022/09/28 11:57:35;;;;;;;2.50;0.43;;;;;;;;;;5009082;28;20030;-77
2022/09/28 12:00:17;;;;;;;1.88;0.68;;;;;;;;;;5010397;28;20022;-77
2022/09/28 12:02:52;;;;;;;1.17;0.40;;;;;;;;;;5007958;28;20371;-77
2022/09/28 12:05:25;;;;;;;0.93;0.50;;;;;;;;;;5017639;28;20038;-78
2022/09/28 12:07:51;;;;;;;3.33;0.60;;;;;;;;;;5009542;28;20042;-78
2022/09/28 12:10:36;;;;;;;1.10;0.70;;;;;;;;;;5008251;28;20069;-77
2022/09/28 12:13:10;;;;;;;3.05;0.70;;;;;;;;;;5005149;28;20053;-78
2022/09/28 12:16:01;;;;;;;2.00;0.60;;;;;;;;;;5009226;28;20394;-77
2022/09/28 12:18:44;;;;;;;0.88;0.50;;;;;;;;;;5003862;28;20029;-79
2022/09/28 12:21:28;;;;;;;;;;;;;;;;;;5004084;28;20529;-78
2022/09/28 12:24:03;;;;;;;;;;;;;;;;;;5000871;28;19917;-77
2022/09/28 12:26:40;;;;;;;0.85;0.57;;;;;;;;;;5006455;28;20040;-77
2022/09/28 12:29:13;;;;;;;0.68;0.47;;;;;;;;;;5005489;28;20486;-77
2022/09/28 12:32:03;;;;;;;1.17;0.60;;;;;;;;;;5005285;28;20026;-77
2022/09/28 12:34:28;;;;;;;1.85;0.80;;;;;;;;;;5004063;28;20046;-76
2022/09/28 12:37:01;;;;;;;3.95;0.80;;;;;;;;;;5005006;28;20671;-78
2022/09/28 12:39:53;;;;;;;1.48;0.60;;;;;;;;;;5021766;28;20021;-77
2022/09/28 12:42:52;;;;;;;1.17;0.50;;;;;;;;;;5000335;28;20033;-77
2022/09/28 12:45:27;;;;;;;1.35;0.57;;;;;;;;;;4997761;28;20026;-78
2022/09/28 12:48:07;;;;;;;1.80;0.70;;;;;;;;;;5005689;28;20501;-78
2022/09/28 12:50:41;;;;;;;0.77;0.55;;;;;;;;;;5005365;28;20018;-77
2022/09/28 12:53:29;;;;;;;0.88;0.50;;;;;;;;;;5017556;28;20029;-78
2022/09/28 12:56:03;;;;;;;2.83;0.63;;;;;;;;;;5008209;28;20033;-78
2022/09/28 12:58:45;;;;;;;1.27;0.57;;;;;;;;;;5006619;28;20481;-78
2022/09/28 13:01:43;;;;;;;1.52;0.80;;;;;;;;;;5001900;28;20478;-78
2022/09/28 13:04:26;;;;;;;1.02;0.50;;;;;;;;;;5004424;28;20485;-78
2022/09/28 13:07:01;;;;;;;0.93;0.45;;;;;;;;;;5004428;28;20089;-79
2022/09/28 13:09:52;;;;;;;1.50;0.68;;;;;;;;;;5001618;28;20430;-78
2022/09/28 13:12:28;;;;;;;3.28;0.82;;;;;;;;;;5030192;28;20124;-78
2022/09/28 13:15:14;;;;;;;1.17;0.65;;;;;;;;;;5002932;28;20026;-78
2022/09/28 13:17:44;;;;;;;1.77;0.75;;;;;;;;;;5005026;28;20033;-78
2022/09/28 13:20:42;;;;;;;1.77;0.60;;;;;;;;;;5022866;28;20034;-78
2022/09/28 13:23:15;;;;;;;1.20;0.60;;;;;;;;;;5013318;28;20092;-78
2022/09/28 13:26:12;;;;;;;3.40;0.88;;;;;;;;;;5007995;28;20095;-77
2022/09/28 13:28:39;;;;;;;1.70;0.90;;;;;;;;;;5001465;28;20044;-78
2022/09/28 13:31:06;;;;;;;1.75;0.60;;;;;;;;;;5007075;28;20435;-78
2022/09/28 13:33:35;;;;;;;2.55;0.55;;;;;;;;;;5008629;28;20461;-79
2022/09/28 13:36:03;;;;;;;1.63;0.50;;;;;;;;;;5019961;28;20036;-78
2022/09/28 13:38:42;;;;;;;3.55;0.90;;;;;;;;;;5009314;28;20475;-78
2022/09/28 13:41:10;;;;;;;0.95;0.55;;;;;;;;;;5001385;28;20525;-78
2022/09/28 13:43:47;;;;;;;1.33;0.50;;;;;;;;;;5009577;28;20112;-77
2022/09/28 13:46:37;;;;;;;2.17;0.70;;;;;;;;;;5038149;28;20410;-78
2022/09/28 13:49:23;;;;;;;1.90;0.60;;;;;;;;;;5020055;28;20030;-78
2022/09/28 13:51:58;;;;;;;1.85;0.60;;;;;;;;;;5007733;28;20493;-78
2022/09/28 13:54:32;;;;;;;1.65;0.70;;;;;;;;;;5010016;28;20030;-76
2022/09/28 13:57:24;;;;;;;0.95;0.73;;;;;;;;;;5004823;28;20026;-77
2022/09/28 14:00:26;;;;;;;1.52;0.60;;;;;;;;;;5008617;28;20454;-77
2022/09/28 14:03:22;;;;;;;1.20;0.40;;;;;;;;;;5019465;28;20394;-77
2022/09/28 14:06:20;;;;;;;0.75;0.43;;;;;;;;;;5002670;28;20148;-77
2022/09/28 14:09:17;;;;;;;0.50;0.40;;;;;;;;;;5002506;28;20080;-76
2022/09/28 14:11:52;;;;;;;1.38;0.68;;;;;;;;;;4998894;28;20080;-76
2022/09/28 14:14:17;;;;;;;3.28;0.60;;;;;;;;;;4996101;28;20116;-77
2022/09/28 14:16:43;;;;;;;2.03;0.50;;;;;;;;;;5013585;28;20466;-76
2022/09/28 14:19:25;;;;;;;1.52;0.70;;;;;;;;;;5005637;28;20041;-76
2022/09/28 14:22:26;;;;;;;2.47;0.63;;;;;;;;;;5002474;28;20049;-76
2022/09/28 14:25:24;;;;;;;1.15;0.60;;;;;;;;;;4960638;28;20081;-76
2022/09/28 14:28:01;;;;;;;1.00;0.52;;;;;;;;;;4997943;28;20030;-77
2022/09/28 14:30:45;;;;;;;2.25;0.60;;;;;;;;;;5030994;28;20034;-78
2022/09/28 14:33:19;;;;;;;1.33;0.68;;;;;;;;;;5002748;28;20032;-77
2022/09/28 14:41:07;;;;;;;1.38;0.57;;;;;;;;;;5021463;28;20037;-81
2022/09/28 14:41:44;;;;;;;0.88;0.60;;;;;;;;;;5001172;28;20049;-77
2022/09/28 14:44:11;;;;;;;2.13;1.33;;;;;;;;;;5004705;28;20041;-78
2022/09/28 14:46:47;;;;;;;1.35;0.50;;;;;;;;;;5008637;28;20036;-77
2022/09/28 14:49:18;;;;;;;1.48;0.60;;;;;;;;;;5004095;28;20398;-79
2022/09/28 14:51:47;;;;;;;6.57;0.80;;;;;;;;;;5004859;28;20462;-78
2022/09/28 14:54:22;;;;;;;1.08;0.40;;;;;;;;;;5006648;28;20029;-77
2022/09/28 14:57:07;;;;;;;1.55;0.45;;;;;;;;;;5000348;28;20489;-80
2022/09/28 14:59:39;;;;;;;0.70;0.20;;;;;;;;;;5011169;28;20405;-78
2022/09/28 15:02:29;;;;;;;0.55;0.20;;;;;;;;;;5005587;28;20026;-78
2022/09/28 15:05:00;;;;;;;1.05;0.30;;;;;;;;;;5011139;28;20125;-78
2022/09/28 15:07:44;;;;;;;0.75;0.17;;;;;;;;;;5000608;28;20494;-79
2022/09/28 15:10:32;;;;;;;0.17;0.17;;;;;;;;;;5003907;28;20544;-78
2022/09/28 15:13:15;;;;;;;0.20;0.20;;;;;;;;;;5003638;28;20294;-78
2022/09/28 15:15:45;;;;;;;1.00;0.40;;;;;;;;;;5000525;28;20457;-79
2022/09/28 15:18:32;;;;;;;0.75;0.20;;;;;;;;;;5033675;28;20117;-77
2022/09/28 15:20:58;;;;;;;0.17;0.17;;;;;;;;;;4999125;28;21314;-79
2022/09/28 15:23:36;;;;;;;0.40;0.10;;;;;;;;;;5003611;28;20032;-77
2022/09/28 15:26:05;;;;;;;0.20;0.20;;;;;;;;;;5004271;28;20084;-78
2022/09/28 15:28:38;;;;;;;0.60;0.15;;;;;;;;;;4998409;28;20038;-78